メインページ
METAR-TAF:

METAR-TAF

空港 :

神戸空港

神戸, 日本

緯度: 34-37-58N, 経度: 135-13-26E, 海抜: 7m

現時点の気象観測

当レポートは47分前の09:00(UTC)に作成
北/北西の風 4kt、西/南西から北/北東の間で変化する
気温 10°C
湿度 66%
気圧 1022 hPa
視程10km以上
高度2500ftの雲はほとんどない
高度3500ftの千切れ雲あり
高度5000ftの千切れ雲あり
弱いにわか雨

METAR: RJBE 130900Z 33004KT 250V020 9999 -SHRA FEW025 BKN035 BKN050 10/04 Q1022

時間: 18:47 (09:47 UTC)


TAF: 見つかりません

4,000以上の空港の気象観測と天気予報(METAR報とTAF報)

利用可能な観測所は地図上に黄色い丸と赤い丸で示す。

丸の上にカーソルを重ねると観測所名を参照できる。

次にクリックすると気象観測と天気予報を参照できる。

マップの切り替え:黒色「×」印の緑ボタンをクリックして拡大、「-」印の緑ボタンをクリックして縮小、緑色の三角印をクリックして隣りの地図に切り替え


METAR-TAF: